sensor_id;sensor_type;location;lat;lon;timestamp;temperature;humidity
27544;DHT22;17996;51.056;3.656;2023-11-19T00:02:20;14.40;99.90
27544;DHT22;17996;51.056;3.656;2023-11-19T00:04:46;14.40;99.90
27544;DHT22;17996;51.056;3.656;2023-11-19T00:07:11;14.30;99.90
27544;DHT22;17996;51.056;3.656;2023-11-19T00:09:39;14.40;99.90
27544;DHT22;17996;51.056;3.656;2023-11-19T00:12:06;14.30;99.90
27544;DHT22;17996;51.056;3.656;2023-11-19T00:14:35;14.30;99.90
27544;DHT22;17996;51.056;3.656;2023-11-19T00:17:01;14.30;99.90
27544;DHT22;17996;51.056;3.656;2023-11-19T00:19:26;14.30;99.90
27544;DHT22;17996;51.056;3.656;2023-11-19T00:21:52;14.30;99.90
27544;DHT22;17996;51.056;3.656;2023-11-19T00:24:18;14.30;99.90
27544;DHT22;17996;51.056;3.656;2023-11-19T00:26:45;14.30;99.90
27544;DHT22;17996;51.056;3.656;2023-11-19T00:29:12;14.30;99.90
27544;DHT22;17996;51.056;3.656;2023-11-19T00:31:39;14.30;99.90
27544;DHT22;17996;51.056;3.656;2023-11-19T00:34:05;14.30;99.90
27544;DHT22;17996;51.056;3.656;2023-11-19T00:36:32;14.20;99.90
27544;DHT22;17996;51.056;3.656;2023-11-19T00:38:57;14.20;99.90
27544;DHT22;17996;51.056;3.656;2023-11-19T00:41:23;14.10;99.90
27544;DHT22;17996;51.056;3.656;2023-11-19T00:43:51;14.10;99.90
27544;DHT22;17996;51.056;3.656;2023-11-19T00:46:16;14.10;99.90
27544;DHT22;17996;51.056;3.656;2023-11-19T00:48:42;14.00;99.90
27544;DHT22;17996;51.056;3.656;2023-11-19T00:51:07;14.00;99.90
27544;DHT22;17996;51.056;3.656;2023-11-19T00:53:33;14.00;99.90
27544;DHT22;17996;51.056;3.656;2023-11-19T00:55:59;14.00;99.90
27544;DHT22;17996;51.056;3.656;2023-11-19T00:58:25;13.90;99.90
27544;DHT22;17996;51.056;3.656;2023-11-19T01:00:51;13.90;99.90
27544;DHT22;17996;51.056;3.656;2023-11-19T01:03:17;13.80;99.90
27544;DHT22;17996;51.056;3.656;2023-11-19T01:05:42;13.80;99.90
27544;DHT22;17996;51.056;3.656;2023-11-19T01:08:10;13.90;99.90
27544;DHT22;17996;51.056;3.656;2023-11-19T01:10:37;13.80;99.90
27544;DHT22;17996;51.056;3.656;2023-11-19T01:13:03;13.80;99.90
27544;DHT22;17996;51.056;3.656;2023-11-19T01:15:31;13.80;99.90
27544;DHT22;17996;51.056;3.656;2023-11-19T01:17:57;13.80;99.90
27544;DHT22;17996;51.056;3.656;2023-11-19T01:20:22;13.80;99.90
27544;DHT22;17996;51.056;3.656;2023-11-19T01:22:49;13.80;99.90
27544;DHT22;17996;51.056;3.656;2023-11-19T01:25:15;13.80;99.90
27544;DHT22;17996;51.056;3.656;2023-11-19T01:27:41;13.80;99.90
27544;DHT22;17996;51.056;3.656;2023-11-19T01:30:07;13.80;99.90
27544;DHT22;17996;51.056;3.656;2023-11-19T01:32:35;13.80;99.90
27544;DHT22;17996;51.056;3.656;2023-11-19T01:35:03;13.80;99.90
27544;DHT22;17996;51.056;3.656;2023-11-19T01:37:29;13.80;99.90
27544;DHT22;17996;51.056;3.656;2023-11-19T01:39:56;13.80;99.90
27544;DHT22;17996;51.056;3.656;2023-11-19T01:42:23;13.80;99.90
27544;DHT22;17996;51.056;3.656;2023-11-19T01:45:00;13.80;99.90
27544;DHT22;17996;51.056;3.656;2023-11-19T01:47:30;13.80;99.90
27544;DHT22;17996;51.056;3.656;2023-11-19T01:49:57;13.70;99.90
27544;DHT22;17996;51.056;3.656;2023-11-19T01:52:23;13.80;99.90
27544;DHT22;17996;51.056;3.656;2023-11-19T01:54:52;13.70;99.90
27544;DHT22;17996;51.056;3.656;2023-11-19T01:57:18;13.70;99.90
27544;DHT22;17996;51.056;3.656;2023-11-19T01:59:45;13.70;99.90
27544;DHT22;17996;51.056;3.656;2023-11-19T02:02:11;13.60;99.90
27544;DHT22;17996;51.056;3.656;2023-11-19T02:04:38;13.60;99.90
27544;DHT22;17996;51.056;3.656;2023-11-19T02:07:04;13.60;99.90
27544;DHT22;17996;51.056;3.656;2023-11-19T02:09:30;13.50;99.90
27544;DHT22;17996;51.056;3.656;2023-11-19T02:11:55;13.50;99.90
27544;DHT22;17996;51.056;3.656;2023-11-19T02:14:25;13.40;99.90
27544;DHT22;17996;51.056;3.656;2023-11-19T02:16:52;13.40;99.90
27544;DHT22;17996;51.056;3.656;2023-11-19T02:19:21;13.40;99.90
27544;DHT22;17996;51.056;3.656;2023-11-19T02:21:47;13.30;99.90
27544;DHT22;17996;51.056;3.656;2023-11-19T02:24:14;13.30;99.90
27544;DHT22;17996;51.056;3.656;2023-11-19T02:27:10;13.30;99.90
27544;DHT22;17996;51.056;3.656;2023-11-19T02:29:39;13.30;99.90
27544;DHT22;17996;51.056;3.656;2023-11-19T02:32:06;13.20;99.90
27544;DHT22;17996;51.056;3.656;2023-11-19T02:34:34;13.20;99.90
27544;DHT22;17996;51.056;3.656;2023-11-19T02:37:01;13.30;99.90
27544;DHT22;17996;51.056;3.656;2023-11-19T02:39:26;13.30;99.90
27544;DHT22;17996;51.056;3.656;2023-11-19T02:41:52;13.30;99.90
27544;DHT22;17996;51.056;3.656;2023-11-19T02:44:18;13.40;99.90
27544;DHT22;17996;51.056;3.656;2023-11-19T02:46:44;13.30;99.90
27544;DHT22;17996;51.056;3.656;2023-11-19T02:49:10;13.40;99.90
27544;DHT22;17996;51.056;3.656;2023-11-19T02:51:36;13.40;99.90
27544;DHT22;17996;51.056;3.656;2023-11-19T02:54:02;13.30;99.90
27544;DHT22;17996;51.056;3.656;2023-11-19T02:56:29;13.30;99.90
27544;DHT22;17996;51.056;3.656;2023-11-19T02:59:00;13.30;99.90
27544;DHT22;17996;51.056;3.656;2023-11-19T03:01:33;13.30;99.90
27544;DHT22;17996;51.056;3.656;2023-11-19T03:04:02;13.40;99.90
27544;DHT22;17996;51.056;3.656;2023-11-19T03:06:29;13.40;99.90
27544;DHT22;17996;51.056;3.656;2023-11-19T03:08:55;13.50;99.90
27544;DHT22;17996;51.056;3.656;2023-11-19T03:11:21;13.50;99.90
27544;DHT22;17996;51.056;3.656;2023-11-19T03:13:47;13.50;99.90
27544;DHT22;17996;51.056;3.656;2023-11-19T03:16:13;13.50;99.90
27544;DHT22;17996;51.056;3.656;2023-11-19T03:18:39;13.50;99.90
27544;DHT22;17996;51.056;3.656;2023-11-19T03:21:08;13.50;99.90
27544;DHT22;17996;51.056;3.656;2023-11-19T03:23:34;13.60;99.90
27544;DHT22;17996;51.056;3.656;2023-11-19T03:26:00;13.50;99.90
27544;DHT22;17996;51.056;3.656;2023-11-19T03:28:29;13.50;99.90
27544;DHT22;17996;51.056;3.656;2023-11-19T03:30:55;13.40;99.90
27544;DHT22;17996;51.056;3.656;2023-11-19T03:33:20;13.40;99.90
27544;DHT22;17996;51.056;3.656;2023-11-19T03:35:46;13.30;99.90
27544;DHT22;17996;51.056;3.656;2023-11-19T03:38:12;13.20;99.90
27544;DHT22;17996;51.056;3.656;2023-11-19T03:40:38;13.20;99.90
27544;DHT22;17996;51.056;3.656;2023-11-19T03:43:04;13.10;99.90
27544;DHT22;17996;51.056;3.656;2023-11-19T03:45:30;13.10;99.90
27544;DHT22;17996;51.056;3.656;2023-11-19T03:47:56;13.00;99.90
27544;DHT22;17996;51.056;3.656;2023-11-19T03:50:22;13.00;99.90
27544;DHT22;17996;51.056;3.656;2023-11-19T03:52:49;13.00;99.90
27544;DHT22;17996;51.056;3.656;2023-11-19T03:55:15;12.90;99.90
27544;DHT22;17996;51.056;3.656;2023-11-19T03:57:41;12.90;99.90
27544;DHT22;17996;51.056;3.656;2023-11-19T04:00:07;12.90;99.90
27544;DHT22;17996;51.056;3.656;2023-11-19T04:02:38;12.90;99.90
27544;DHT22;17996;51.056;3.656;2023-11-19T04:05:05;12.90;99.90
27544;DHT22;17996;51.056;3.656;2023-11-19T04:07:31;12.90;99.90
27544;DHT22;17996;51.056;3.656;2023-11-19T04:09:57;12.80;99.90
27544;DHT22;17996;51.056;3.656;2023-11-19T04:12:23;12.80;99.90
27544;DHT22;17996;51.056;3.656;2023-11-19T04:14:49;12.80;99.90
27544;DHT22;17996;51.056;3.656;2023-11-19T04:17:14;12.70;99.90
27544;DHT22;17996;51.056;3.656;2023-11-19T04:19:40;12.70;99.90
27544;DHT22;17996;51.056;3.656;2023-11-19T04:22:09;12.70;99.90
27544;DHT22;17996;51.056;3.656;2023-11-19T04:24:36;12.70;99.90
27544;DHT22;17996;51.056;3.656;2023-11-19T04:27:02;12.70;99.90
27544;DHT22;17996;51.056;3.656;2023-11-19T04:29:30;12.60;99.90
27544;DHT22;17996;51.056;3.656;2023-11-19T04:31:56;12.60;99.90
27544;DHT22;17996;51.056;3.656;2023-11-19T04:34:22;12.60;99.90
27544;DHT22;17996;51.056;3.656;2023-11-19T04:36:47;12.60;99.90
27544;DHT22;17996;51.056;3.656;2023-11-19T04:39:13;12.50;99.90
27544;DHT22;17996;51.056;3.656;2023-11-19T04:41:48;12.50;99.90
27544;DHT22;17996;51.056;3.656;2023-11-19T04:44:20;12.50;99.90
27544;DHT22;17996;51.056;3.656;2023-11-19T04:46:46;12.50;99.90
27544;DHT22;17996;51.056;3.656;2023-11-19T04:49:13;12.40;99.90
27544;DHT22;17996;51.056;3.656;2023-11-19T04:54:06;12.40;99.90
27544;DHT22;17996;51.056;3.656;2023-11-19T04:56:33;12.40;99.90
27544;DHT22;17996;51.056;3.656;2023-11-19T04:58:59;12.40;99.90
27544;DHT22;17996;51.056;3.656;2023-11-19T05:01:24;12.40;99.90
27544;DHT22;17996;51.056;3.656;2023-11-19T05:03:50;12.40;99.90
27544;DHT22;17996;51.056;3.656;2023-11-19T05:06:16;12.40;99.90
27544;DHT22;17996;51.056;3.656;2023-11-19T05:08:42;12.30;99.90
27544;DHT22;17996;51.056;3.656;2023-11-19T05:11:08;12.30;99.90
27544;DHT22;17996;51.056;3.656;2023-11-19T05:13:37;12.30;99.90
27544;DHT22;17996;51.056;3.656;2023-11-19T05:16:03;12.20;99.90
27544;DHT22;17996;51.056;3.656;2023-11-19T05:18:29;12.20;99.90
27544;DHT22;17996;51.056;3.656;2023-11-19T05:20:55;12.20;99.90
27544;DHT22;17996;51.056;3.656;2023-11-19T05:23:21;12.20;99.90
27544;DHT22;17996;51.056;3.656;2023-11-19T05:25:47;12.20;99.90
27544;DHT22;17996;51.056;3.656;2023-11-19T05:28:13;12.20;99.90
27544;DHT22;17996;51.056;3.656;2023-11-19T05:30:39;12.10;99.90
27544;DHT22;17996;51.056;3.656;2023-11-19T05:33:06;12.10;99.90
27544;DHT22;17996;51.056;3.656;2023-11-19T05:35:34;12.10;99.90
27544;DHT22;17996;51.056;3.656;2023-11-19T05:38:00;12.10;99.90
27544;DHT22;17996;51.056;3.656;2023-11-19T05:40:26;12.10;99.90
27544;DHT22;17996;51.056;3.656;2023-11-19T05:42:51;12.20;99.90
27544;DHT22;17996;51.056;3.656;2023-11-19T05:45:17;12.20;99.90
27544;DHT22;17996;51.056;3.656;2023-11-19T05:47:43;12.20;99.90
27544;DHT22;17996;51.056;3.656;2023-11-19T05:50:09;12.20;99.90
27544;DHT22;17996;51.056;3.656;2023-11-19T05:52:35;12.20;99.90
27544;DHT22;17996;51.056;3.656;2023-11-19T05:55:01;12.10;99.90
27544;DHT22;17996;51.056;3.656;2023-11-19T05:57:31;12.10;99.90
27544;DHT22;17996;51.056;3.656;2023-11-19T06:00:01;12.10;99.90
27544;DHT22;17996;51.056;3.656;2023-11-19T06:02:26;12.10;99.90
27544;DHT22;17996;51.056;3.656;2023-11-19T06:04:53;12.10;99.90
27544;DHT22;17996;51.056;3.656;2023-11-19T06:07:18;12.00;99.90
27544;DHT22;17996;51.056;3.656;2023-11-19T06:09:45;12.00;99.90
27544;DHT22;17996;51.056;3.656;2023-11-19T06:12:11;12.00;99.90
27544;DHT22;17996;51.056;3.656;2023-11-19T06:14:38;12.00;99.90
27544;DHT22;17996;51.056;3.656;2023-11-19T06:17:05;11.90;99.90
27544;DHT22;17996;51.056;3.656;2023-11-19T06:19:31;11.90;99.90
27544;DHT22;17996;51.056;3.656;2023-11-19T06:21:56;11.90;99.90
27544;DHT22;17996;51.056;3.656;2023-11-19T06:24:22;11.90;99.90
27544;DHT22;17996;51.056;3.656;2023-11-19T06:26:48;11.90;99.90
27544;DHT22;17996;51.056;3.656;2023-11-19T06:29:13;11.80;99.90
27544;DHT22;17996;51.056;3.656;2023-11-19T06:31:44;11.80;99.90
27544;DHT22;17996;51.056;3.656;2023-11-19T06:34:10;11.80;99.90
27544;DHT22;17996;51.056;3.656;2023-11-19T06:36:35;11.80;99.90
27544;DHT22;17996;51.056;3.656;2023-11-19T06:39:01;11.80;99.90
27544;DHT22;17996;51.056;3.656;2023-11-19T06:41:27;11.90;99.90
27544;DHT22;17996;51.056;3.656;2023-11-19T06:43:54;11.80;99.90
27544;DHT22;17996;51.056;3.656;2023-11-19T06:46:20;11.80;99.90
27544;DHT22;17996;51.056;3.656;2023-11-19T06:48:46;11.80;99.90
27544;DHT22;17996;51.056;3.656;2023-11-19T06:51:12;11.80;99.90
27544;DHT22;17996;51.056;3.656;2023-11-19T06:53:38;11.80;99.90
27544;DHT22;17996;51.056;3.656;2023-11-19T06:56:10;11.80;99.90
27544;DHT22;17996;51.056;3.656;2023-11-19T06:58:42;11.80;99.90
27544;DHT22;17996;51.056;3.656;2023-11-19T07:01:08;11.80;99.90
27544;DHT22;17996;51.056;3.656;2023-11-19T07:03:35;11.80;99.90
27544;DHT22;17996;51.056;3.656;2023-11-19T07:06:01;11.80;99.90
27544;DHT22;17996;51.056;3.656;2023-11-19T07:08:26;11.80;99.90
27544;DHT22;17996;51.056;3.656;2023-11-19T07:10:53;11.80;99.90
27544;DHT22;17996;51.056;3.656;2023-11-19T07:13:19;11.90;99.90
27544;DHT22;17996;51.056;3.656;2023-11-19T07:15:44;11.80;99.90
27544;DHT22;17996;51.056;3.656;2023-11-19T07:18:10;11.80;99.90
27544;DHT22;17996;51.056;3.656;2023-11-19T07:20:37;11.90;99.90
27544;DHT22;17996;51.056;3.656;2023-11-19T07:23:04;11.80;99.90
27544;DHT22;17996;51.056;3.656;2023-11-19T07:25:29;11.80;99.90
27544;DHT22;17996;51.056;3.656;2023-11-19T07:27:55;11.90;99.90
27544;DHT22;17996;51.056;3.656;2023-11-19T07:30:22;11.90;99.90
27544;DHT22;17996;51.056;3.656;2023-11-19T07:32:47;11.90;99.90
27544;DHT22;17996;51.056;3.656;2023-11-19T07:35:14;12.00;99.90
27544;DHT22;17996;51.056;3.656;2023-11-19T07:37:41;12.00;99.90
27544;DHT22;17996;51.056;3.656;2023-11-19T07:40:08;12.00;99.90
27544;DHT22;17996;51.056;3.656;2023-11-19T07:42:34;12.00;99.90
27544;DHT22;17996;51.056;3.656;2023-11-19T07:44:59;12.00;99.90
27544;DHT22;17996;51.056;3.656;2023-11-19T07:47:25;12.00;99.90
27544;DHT22;17996;51.056;3.656;2023-11-19T07:49:51;12.10;99.90
27544;DHT22;17996;51.056;3.656;2023-11-19T07:52:17;12.10;99.90
27544;DHT22;17996;51.056;3.656;2023-11-19T07:54:42;12.10;99.90
27544;DHT22;17996;51.056;3.656;2023-11-19T07:57:08;12.10;99.90
27544;DHT22;17996;51.056;3.656;2023-11-19T07:59:34;12.10;99.90
27544;DHT22;17996;51.056;3.656;2023-11-19T08:01:59;12.10;99.90
27544;DHT22;17996;51.056;3.656;2023-11-19T08:04:25;12.20;99.90
27544;DHT22;17996;51.056;3.656;2023-11-19T08:06:51;12.20;99.90
27544;DHT22;17996;51.056;3.656;2023-11-19T08:09:17;12.20;99.90
27544;DHT22;17996;51.056;3.656;2023-11-19T08:11:43;12.30;99.90
27544;DHT22;17996;51.056;3.656;2023-11-19T08:14:09;12.30;99.90
27544;DHT22;17996;51.056;3.656;2023-11-19T08:16:35;12.30;99.90
27544;DHT22;17996;51.056;3.656;2023-11-19T08:19:01;12.30;99.90
27544;DHT22;17996;51.056;3.656;2023-11-19T08:21:28;12.30;99.90
27544;DHT22;17996;51.056;3.656;2023-11-19T08:23:54;12.30;99.90
27544;DHT22;17996;51.056;3.656;2023-11-19T08:26:20;12.30;99.90
27544;DHT22;17996;51.056;3.656;2023-11-19T08:28:45;12.30;99.90
27544;DHT22;17996;51.056;3.656;2023-11-19T08:31:11;12.40;99.90
27544;DHT22;17996;51.056;3.656;2023-11-19T08:33:37;12.40;99.90
27544;DHT22;17996;51.056;3.656;2023-11-19T08:36:03;12.50;99.90
27544;DHT22;17996;51.056;3.656;2023-11-19T08:38:29;12.50;99.90
27544;DHT22;17996;51.056;3.656;2023-11-19T08:40:55;12.70;99.90
27544;DHT22;17996;51.056;3.656;2023-11-19T08:43:26;12.80;99.90
27544;DHT22;17996;51.056;3.656;2023-11-19T08:45:52;12.80;99.90
27544;DHT22;17996;51.056;3.656;2023-11-19T08:48:17;12.90;99.90
27544;DHT22;17996;51.056;3.656;2023-11-19T08:50:43;12.90;99.90
27544;DHT22;17996;51.056;3.656;2023-11-19T08:53:09;13.00;99.90
27544;DHT22;17996;51.056;3.656;2023-11-19T08:55:34;13.10;99.90
27544;DHT22;17996;51.056;3.656;2023-11-19T08:58:00;13.10;99.90
27544;DHT22;17996;51.056;3.656;2023-11-19T09:00:26;13.20;99.90
27544;DHT22;17996;51.056;3.656;2023-11-19T09:02:52;13.30;99.90
27544;DHT22;17996;51.056;3.656;2023-11-19T09:05:18;13.30;99.90
27544;DHT22;17996;51.056;3.656;2023-11-19T09:07:43;13.40;99.90
27544;DHT22;17996;51.056;3.656;2023-11-19T09:10:09;13.30;99.90
27544;DHT22;17996;51.056;3.656;2023-11-19T09:12:37;13.30;99.90
27544;DHT22;17996;51.056;3.656;2023-11-19T09:15:03;13.30;99.90
27544;DHT22;17996;51.056;3.656;2023-11-19T09:17:28;13.40;99.90
27544;DHT22;17996;51.056;3.656;2023-11-19T09:19:54;13.30;99.90
27544;DHT22;17996;51.056;3.656;2023-11-19T09:22:20;13.30;99.90
27544;DHT22;17996;51.056;3.656;2023-11-19T09:24:46;13.30;99.90
27544;DHT22;17996;51.056;3.656;2023-11-19T09:27:13;13.30;99.90
27544;DHT22;17996;51.056;3.656;2023-11-19T09:29:39;13.20;99.90
27544;DHT22;17996;51.056;3.656;2023-11-19T09:32:05;13.10;99.90
27544;DHT22;17996;51.056;3.656;2023-11-19T09:34:31;13.10;99.90
27544;DHT22;17996;51.056;3.656;2023-11-19T09:36:57;13.20;99.90
27544;DHT22;17996;51.056;3.656;2023-11-19T09:39:23;13.20;99.90
27544;DHT22;17996;51.056;3.656;2023-11-19T09:41:51;13.30;99.90
27544;DHT22;17996;51.056;3.656;2023-11-19T09:44:17;13.40;99.90
27544;DHT22;17996;51.056;3.656;2023-11-19T09:46:44;13.50;99.90
27544;DHT22;17996;51.056;3.656;2023-11-19T09:49:11;13.70;99.90
27544;DHT22;17996;51.056;3.656;2023-11-19T09:51:38;13.80;99.90
27544;DHT22;17996;51.056;3.656;2023-11-19T09:54:04;13.80;99.90
27544;DHT22;17996;51.056;3.656;2023-11-19T09:56:30;13.90;99.90
27544;DHT22;17996;51.056;3.656;2023-11-19T09:58:59;13.90;99.90
27544;DHT22;17996;51.056;3.656;2023-11-19T10:01:25;14.00;99.90
27544;DHT22;17996;51.056;3.656;2023-11-19T10:03:55;14.00;99.90
27544;DHT22;17996;51.056;3.656;2023-11-19T10:06:21;14.00;99.90
27544;DHT22;17996;51.056;3.656;2023-11-19T10:08:47;14.00;99.90
27544;DHT22;17996;51.056;3.656;2023-11-19T10:11:12;14.00;99.90
27544;DHT22;17996;51.056;3.656;2023-11-19T10:13:39;13.90;99.90
27544;DHT22;17996;51.056;3.656;2023-11-19T10:16:08;13.90;99.90
27544;DHT22;17996;51.056;3.656;2023-11-19T10:18:34;14.00;99.90
27544;DHT22;17996;51.056;3.656;2023-11-19T10:21:04;14.00;99.90
27544;DHT22;17996;51.056;3.656;2023-11-19T10:23:31;13.90;99.90
27544;DHT22;17996;51.056;3.656;2023-11-19T10:26:07;13.90;99.90
27544;DHT22;17996;51.056;3.656;2023-11-19T10:28:40;13.80;99.90
27544;DHT22;17996;51.056;3.656;2023-11-19T10:31:15;13.90;99.90
27544;DHT22;17996;51.056;3.656;2023-11-19T10:33:41;13.90;99.90
27544;DHT22;17996;51.056;3.656;2023-11-19T10:36:08;14.00;99.90
27544;DHT22;17996;51.056;3.656;2023-11-19T10:38:34;14.10;99.90
27544;DHT22;17996;51.056;3.656;2023-11-19T10:40:59;14.20;99.90
27544;DHT22;17996;51.056;3.656;2023-11-19T10:43:25;14.20;99.90
27544;DHT22;17996;51.056;3.656;2023-11-19T10:45:51;14.10;99.90
27544;DHT22;17996;51.056;3.656;2023-11-19T10:48:17;14.10;99.90
27544;DHT22;17996;51.056;3.656;2023-11-19T10:50:46;14.10;99.90
27544;DHT22;17996;51.056;3.656;2023-11-19T10:53:14;14.10;99.90
27544;DHT22;17996;51.056;3.656;2023-11-19T10:55:40;14.10;99.90
27544;DHT22;17996;51.056;3.656;2023-11-19T10:58:09;14.10;99.90
27544;DHT22;17996;51.056;3.656;2023-11-19T11:00:57;14.00;99.90
27544;DHT22;17996;51.056;3.656;2023-11-19T11:03:26;14.00;99.90
27544;DHT22;17996;51.056;3.656;2023-11-19T11:05:56;14.00;99.90
27544;DHT22;17996;51.056;3.656;2023-11-19T11:08:22;14.00;99.90
27544;DHT22;17996;51.056;3.656;2023-11-19T11:10:57;13.90;99.90
27544;DHT22;17996;51.056;3.656;2023-11-19T11:13:25;14.00;99.90
27544;DHT22;17996;51.056;3.656;2023-11-19T11:15:53;14.00;99.90
27544;DHT22;17996;51.056;3.656;2023-11-19T11:18:22;14.00;99.90
27544;DHT22;17996;51.056;3.656;2023-11-19T11:20:52;14.20;99.90
27544;DHT22;17996;51.056;3.656;2023-11-19T11:39:42;14.20;99.90
27544;DHT22;17996;51.056;3.656;2023-11-19T11:45:02;14.10;99.90
27544;DHT22;17996;51.056;3.656;2023-11-19T11:50:22;14.00;99.90
27544;DHT22;17996;51.056;3.656;2023-11-19T11:57:53;13.80;99.90
27544;DHT22;17996;51.056;3.656;2023-11-19T12:00:41;13.80;99.90
27544;DHT22;17996;51.056;3.656;2023-11-19T12:03:08;13.80;99.90
27544;DHT22;17996;51.056;3.656;2023-11-19T12:05:41;13.80;99.90
27544;DHT22;17996;51.056;3.656;2023-11-19T12:08:09;13.70;99.90
27544;DHT22;17996;51.056;3.656;2023-11-19T12:13:09;13.70;99.90
27544;DHT22;17996;51.056;3.656;2023-11-19T12:18:30;13.90;99.90
27544;DHT22;17996;51.056;3.656;2023-11-19T12:20:59;14.00;99.90
27544;DHT22;17996;51.056;3.656;2023-11-19T12:23:27;14.10;99.90
27544;DHT22;17996;51.056;3.656;2023-11-19T12:25:54;14.20;99.90
27544;DHT22;17996;51.056;3.656;2023-11-19T12:28:20;14.30;99.90
27544;DHT22;17996;51.056;3.656;2023-11-19T12:30:46;14.40;99.90
27544;DHT22;17996;51.056;3.656;2023-11-19T12:33:15;14.40;99.90
27544;DHT22;17996;51.056;3.656;2023-11-19T12:35:42;14.40;99.90
27544;DHT22;17996;51.056;3.656;2023-11-19T12:38:21;14.30;99.90
27544;DHT22;17996;51.056;3.656;2023-11-19T12:40:47;14.20;99.90
27544;DHT22;17996;51.056;3.656;2023-11-19T12:43:27;14.20;99.90
27544;DHT22;17996;51.056;3.656;2023-11-19T12:45:52;14.10;99.90
27544;DHT22;17996;51.056;3.656;2023-11-19T12:48:18;14.10;99.90
27544;DHT22;17996;51.056;3.656;2023-11-19T12:51:10;14.00;99.90
27544;DHT22;17996;51.056;3.656;2023-11-19T12:53:50;13.90;99.90
27544;DHT22;17996;51.056;3.656;2023-11-19T12:56:20;13.80;99.90
27544;DHT22;17996;51.056;3.656;2023-11-19T12:58:45;13.70;99.90
27544;DHT22;17996;51.056;3.656;2023-11-19T13:01:18;13.60;99.90
27544;DHT22;17996;51.056;3.656;2023-11-19T13:03:45;13.60;99.90
27544;DHT22;17996;51.056;3.656;2023-11-19T13:06:12;13.50;99.90
27544;DHT22;17996;51.056;3.656;2023-11-19T13:08:40;13.50;99.90
27544;DHT22;17996;51.056;3.656;2023-11-19T13:11:07;13.50;99.90
27544;DHT22;17996;51.056;3.656;2023-11-19T13:14:00;13.50;99.90
27544;DHT22;17996;51.056;3.656;2023-11-19T13:16:27;13.60;99.90
27544;DHT22;17996;51.056;3.656;2023-11-19T13:18:53;13.70;99.90
27544;DHT22;17996;51.056;3.656;2023-11-19T13:21:19;13.70;99.90
27544;DHT22;17996;51.056;3.656;2023-11-19T13:23:45;13.80;99.90
27544;DHT22;17996;51.056;3.656;2023-11-19T13:26:11;13.80;99.90
27544;DHT22;17996;51.056;3.656;2023-11-19T13:28:37;13.80;99.90
27544;DHT22;17996;51.056;3.656;2023-11-19T13:31:03;13.80;99.90
27544;DHT22;17996;51.056;3.656;2023-11-19T13:33:29;13.80;99.90
27544;DHT22;17996;51.056;3.656;2023-11-19T13:35:56;13.90;99.90
27544;DHT22;17996;51.056;3.656;2023-11-19T13:38:22;13.80;99.90
27544;DHT22;17996;51.056;3.656;2023-11-19T13:40:49;13.90;99.90
27544;DHT22;17996;51.056;3.656;2023-11-19T13:43:15;13.90;99.90
27544;DHT22;17996;51.056;3.656;2023-11-19T13:45:40;13.80;99.90
27544;DHT22;17996;51.056;3.656;2023-11-19T13:48:06;13.80;99.90
27544;DHT22;17996;51.056;3.656;2023-11-19T13:50:32;13.80;99.90
27544;DHT22;17996;51.056;3.656;2023-11-19T13:52:59;13.80;99.90
27544;DHT22;17996;51.056;3.656;2023-11-19T13:55:25;13.80;99.90
27544;DHT22;17996;51.056;3.656;2023-11-19T13:57:51;13.70;99.90
27544;DHT22;17996;51.056;3.656;2023-11-19T14:00:17;13.70;99.90
27544;DHT22;17996;51.056;3.656;2023-11-19T14:02:46;13.70;99.90
27544;DHT22;17996;51.056;3.656;2023-11-19T14:05:14;13.70;99.90
27544;DHT22;17996;51.056;3.656;2023-11-19T14:07:43;13.60;99.90
27544;DHT22;17996;51.056;3.656;2023-11-19T14:10:09;13.50;99.90
27544;DHT22;17996;51.056;3.656;2023-11-19T14:12:37;13.50;99.90
27544;DHT22;17996;51.056;3.656;2023-11-19T14:15:06;13.50;99.90
27544;DHT22;17996;51.056;3.656;2023-11-19T14:17:33;13.50;99.90
27544;DHT22;17996;51.056;3.656;2023-11-19T14:19:59;13.40;99.90
27544;DHT22;17996;51.056;3.656;2023-11-19T14:22:25;13.40;99.90
27544;DHT22;17996;51.056;3.656;2023-11-19T14:24:51;13.40;99.90
27544;DHT22;17996;51.056;3.656;2023-11-19T14:27:16;13.40;99.90
27544;DHT22;17996;51.056;3.656;2023-11-19T14:29:43;13.50;99.90
27544;DHT22;17996;51.056;3.656;2023-11-19T14:32:10;13.50;99.90
27544;DHT22;17996;51.056;3.656;2023-11-19T14:34:36;13.50;99.90
27544;DHT22;17996;51.056;3.656;2023-11-19T14:37:01;13.50;99.90
27544;DHT22;17996;51.056;3.656;2023-11-19T14:39:27;13.60;99.90
27544;DHT22;17996;51.056;3.656;2023-11-19T14:41:54;13.60;99.90
27544;DHT22;17996;51.056;3.656;2023-11-19T14:44:23;13.60;99.90
27544;DHT22;17996;51.056;3.656;2023-11-19T14:46:49;13.60;99.90
27544;DHT22;17996;51.056;3.656;2023-11-19T14:49:15;13.60;99.90
27544;DHT22;17996;51.056;3.656;2023-11-19T14:51:41;13.60;99.90
27544;DHT22;17996;51.056;3.656;2023-11-19T14:54:06;13.60;99.90
27544;DHT22;17996;51.056;3.656;2023-11-19T14:56:32;13.60;99.90
27544;DHT22;17996;51.056;3.656;2023-11-19T14:58:58;13.60;99.90
27544;DHT22;17996;51.056;3.656;2023-11-19T15:01:24;13.60;99.90
27544;DHT22;17996;51.056;3.656;2023-11-19T15:03:50;13.60;99.90
27544;DHT22;17996;51.056;3.656;2023-11-19T15:06:16;13.50;99.90
27544;DHT22;17996;51.056;3.656;2023-11-19T15:08:41;13.50;99.90
27544;DHT22;17996;51.056;3.656;2023-11-19T15:11:08;13.50;99.90
27544;DHT22;17996;51.056;3.656;2023-11-19T15:13:35;13.50;99.90
27544;DHT22;17996;51.056;3.656;2023-11-19T15:16:03;13.40;99.90
27544;DHT22;17996;51.056;3.656;2023-11-19T15:18:31;13.40;99.90
27544;DHT22;17996;51.056;3.656;2023-11-19T15:20:56;13.40;99.90
27544;DHT22;17996;51.056;3.656;2023-11-19T15:23:22;13.40;99.90
27544;DHT22;17996;51.056;3.656;2023-11-19T15:25:48;13.40;99.90
27544;DHT22;17996;51.056;3.656;2023-11-19T15:28:14;13.40;99.90
27544;DHT22;17996;51.056;3.656;2023-11-19T15:30:40;13.30;99.90
27544;DHT22;17996;51.056;3.656;2023-11-19T15:33:06;13.30;99.90
27544;DHT22;17996;51.056;3.656;2023-11-19T15:35:34;13.30;99.90
27544;DHT22;17996;51.056;3.656;2023-11-19T15:38:00;13.30;99.90
27544;DHT22;17996;51.056;3.656;2023-11-19T15:40:26;13.30;99.90
27544;DHT22;17996;51.056;3.656;2023-11-19T15:42:52;13.30;99.90
27544;DHT22;17996;51.056;3.656;2023-11-19T15:45:20;13.40;99.90
27544;DHT22;17996;51.056;3.656;2023-11-19T15:47:46;13.40;99.90
27544;DHT22;17996;51.056;3.656;2023-11-19T15:50:11;13.40;99.90
27544;DHT22;17996;51.056;3.656;2023-11-19T15:52:37;13.30;99.90
27544;DHT22;17996;51.056;3.656;2023-11-19T15:55:04;13.30;99.90
27544;DHT22;17996;51.056;3.656;2023-11-19T15:57:30;13.40;99.90
27544;DHT22;17996;51.056;3.656;2023-11-19T15:59:55;13.30;99.90
27544;DHT22;17996;51.056;3.656;2023-11-19T16:02:21;13.30;99.90
27544;DHT22;17996;51.056;3.656;2023-11-19T16:04:47;13.30;99.90